sensor_id;sensor_type;location;lat;lon;timestamp;pressure;altitude;pressure_sealevel;temperature;humidity
21638;BME280;10980;49.596;6.142;2023-02-16T00:02:19;99374.31;;;-0.86;100.00
21638;BME280;10980;49.596;6.142;2023-02-16T00:05:49;99377.88;;;-0.90;100.00
21638;BME280;10980;49.596;6.142;2023-02-16T00:09:13;99369.41;;;-0.97;100.00
21638;BME280;10980;49.596;6.142;2023-02-16T00:12:34;99356.75;;;-1.10;100.00
21638;BME280;10980;49.596;6.142;2023-02-16T00:16:23;99372.31;;;-1.07;100.00
21638;BME280;10980;49.596;6.142;2023-02-16T00:19:45;99349.00;;;-1.13;100.00
21638;BME280;10980;49.596;6.142;2023-02-16T00:23:08;99349.81;;;-1.11;100.00
21638;BME280;10980;49.596;6.142;2023-02-16T00:26:32;99355.56;;;-1.30;100.00
21638;BME280;10980;49.596;6.142;2023-02-16T00:29:56;99355.66;;;-1.33;100.00
21638;BME280;10980;49.596;6.142;2023-02-16T00:33:20;99360.78;;;-1.30;100.00
21638;BME280;10980;49.596;6.142;2023-02-16T00:36:44;99351.19;;;-1.29;100.00
21638;BME280;10980;49.596;6.142;2023-02-16T00:40:06;99356.56;;;-1.35;100.00
21638;BME280;10980;49.596;6.142;2023-02-16T00:43:29;99360.13;;;-1.38;100.00
21638;BME280;10980;49.596;6.142;2023-02-16T00:46:54;99336.66;;;-1.38;100.00
21638;BME280;10980;49.596;6.142;2023-02-16T00:50:21;99350.34;;;-1.30;100.00
21638;BME280;10980;49.596;6.142;2023-02-16T00:53:44;99345.66;;;-1.48;100.00
21638;BME280;10980;49.596;6.142;2023-02-16T00:57:13;99336.22;;;-1.54;100.00
21638;BME280;10980;49.596;6.142;2023-02-16T01:00:53;99343.66;;;-1.40;100.00
21638;BME280;10980;49.596;6.142;2023-02-16T01:04:24;99348.94;;;-1.41;100.00
21638;BME280;10980;49.596;6.142;2023-02-16T01:07:46;99331.28;;;-1.64;100.00
21638;BME280;10980;49.596;6.142;2023-02-16T01:11:28;99348.88;;;-1.40;100.00
21638;BME280;10980;49.596;6.142;2023-02-16T01:14:53;99340.38;;;-1.46;100.00
21638;BME280;10980;49.596;6.142;2023-02-16T01:18:20;99349.75;;;-1.39;100.00
21638;BME280;10980;49.596;6.142;2023-02-16T01:21:45;99337.78;;;-1.46;100.00
21638;BME280;10980;49.596;6.142;2023-02-16T01:25:07;99341.47;;;-1.24;100.00
21638;BME280;10980;49.596;6.142;2023-02-16T01:28:34;99343.66;;;-1.09;100.00
21638;BME280;10980;49.596;6.142;2023-02-16T01:31:57;99344.19;;;-1.27;100.00
21638;BME280;10980;49.596;6.142;2023-02-16T01:35:32;99343.66;;;-1.40;100.00
21638;BME280;10980;49.596;6.142;2023-02-16T01:38:56;99330.28;;;-1.28;100.00
21638;BME280;10980;49.596;6.142;2023-02-16T01:42:50;99332.44;;;-1.12;100.00
21638;BME280;10980;49.596;6.142;2023-02-16T01:46:44;99330.59;;;-1.09;100.00
21638;BME280;10980;49.596;6.142;2023-02-16T01:50:19;99324.56;;;-1.11;100.00
21638;BME280;10980;49.596;6.142;2023-02-16T01:58:00;99334.97;;;-1.09;100.00
21638;BME280;10980;49.596;6.142;2023-02-16T02:01:49;99327.03;;;-1.06;100.00
21638;BME280;10980;49.596;6.142;2023-02-16T02:05:26;99331.34;;;-1.05;100.00
21638;BME280;10980;49.596;6.142;2023-02-16T02:09:13;99330.66;;;-1.10;100.00
21638;BME280;10980;49.596;6.142;2023-02-16T02:12:52;99321.06;;;-1.10;100.00
21638;BME280;10980;49.596;6.142;2023-02-16T02:16:24;99313.47;;;-1.17;100.00
21638;BME280;10980;49.596;6.142;2023-02-16T02:20:09;99309.81;;;-1.12;100.00
21638;BME280;10980;49.596;6.142;2023-02-16T02:23:57;99314.19;;;-1.12;100.00
21638;BME280;10980;49.596;6.142;2023-02-16T02:32:41;99306.63;;;-1.22;100.00
21638;BME280;10980;49.596;6.142;2023-02-16T02:36:49;99306.63;;;-1.22;100.00
21638;BME280;10980;49.596;6.142;2023-02-16T02:44:10;99306.81;;;-1.28;100.00
21638;BME280;10980;49.596;6.142;2023-02-16T02:47:46;99310.66;;;-1.41;100.00
21638;BME280;10980;49.596;6.142;2023-02-16T02:51:16;99300.22;;;-1.41;100.00
21638;BME280;10980;49.596;6.142;2023-02-16T02:54:56;99296.13;;;-1.50;100.00
21638;BME280;10980;49.596;6.142;2023-02-16T02:58:38;99279.81;;;-1.56;100.00
21638;BME280;10980;49.596;6.142;2023-02-16T03:02:23;99294.50;;;-1.54;100.00
21638;BME280;10980;49.596;6.142;2023-02-16T03:05:56;99278.44;;;-1.69;100.00
21638;BME280;10980;49.596;6.142;2023-02-16T03:09:20;99275.97;;;-1.74;100.00
21638;BME280;10980;49.596;6.142;2023-02-16T03:12:50;99272.28;;;-1.67;100.00
21638;BME280;10980;49.596;6.142;2023-02-16T03:16:30;99274.88;;;-1.67;100.00
21638;BME280;10980;49.596;6.142;2023-02-16T03:19:57;99276.91;;;-1.76;100.00
21638;BME280;10980;49.596;6.142;2023-02-16T03:23:40;99265.97;;;-1.89;100.00
21638;BME280;10980;49.596;6.142;2023-02-16T03:27:27;99265.88;;;-1.86;100.00
21638;BME280;10980;49.596;6.142;2023-02-16T03:31:25;99273.50;;;-1.78;100.00
21638;BME280;10980;49.596;6.142;2023-02-16T03:34:51;99267.81;;;-1.94;100.00
21638;BME280;10980;49.596;6.142;2023-02-16T03:38:12;99263.41;;;-1.91;100.00
21638;BME280;10980;49.596;6.142;2023-02-16T03:41:45;99273.34;;;-1.74;100.00
21638;BME280;10980;49.596;6.142;2023-02-16T03:45:08;99258.09;;;-1.88;100.00
21638;BME280;10980;49.596;6.142;2023-02-16T03:48:30;99263.41;;;-1.91;100.00
21638;BME280;10980;49.596;6.142;2023-02-16T03:51:52;99269.28;;;-1.84;100.00
21638;BME280;10980;49.596;6.142;2023-02-16T03:55:16;99280.38;;;-1.76;100.00
21638;BME280;10980;49.596;6.142;2023-02-16T03:58:38;99274.41;;;-1.81;100.00
21638;BME280;10980;49.596;6.142;2023-02-16T04:02:00;99274.22;;;-1.73;100.00
21638;BME280;10980;49.596;6.142;2023-02-16T04:05:22;99272.78;;;-1.85;100.00
21638;BME280;10980;49.596;6.142;2023-02-16T04:08:45;99272.03;;;-1.89;100.00
21638;BME280;10980;49.596;6.142;2023-02-16T04:12:10;99281.25;;;-1.77;100.00
21638;BME280;10980;49.596;6.142;2023-02-16T04:15:52;99278.56;;;-1.74;100.00
21638;BME280;10980;49.596;6.142;2023-02-16T04:19:19;99283.41;;;-1.60;100.00
21638;BME280;10980;49.596;6.142;2023-02-16T04:23:07;99288.22;;;-1.77;100.00
21638;BME280;10980;49.596;6.142;2023-02-16T04:26:32;99281.53;;;-1.88;100.00
21638;BME280;10980;49.596;6.142;2023-02-16T04:29:54;99281.63;;;-1.91;100.00
21638;BME280;10980;49.596;6.142;2023-02-16T04:33:16;99284.69;;;-1.75;100.00
21638;BME280;10980;49.596;6.142;2023-02-16T04:36:38;99270.03;;;-1.81;100.00
21638;BME280;10980;49.596;6.142;2023-02-16T04:40:01;99280.38;;;-1.76;100.00
21638;BME280;10980;49.596;6.142;2023-02-16T04:43:25;99278.69;;;-1.78;100.00
21638;BME280;10980;49.596;6.142;2023-02-16T04:46:47;99289.38;;;-1.88;100.00
21638;BME280;10980;49.596;6.142;2023-02-16T04:50:09;99292.16;;;-1.95;100.00
21638;BME280;10980;49.596;6.142;2023-02-16T04:53:32;99268.00;;;-2.00;100.00
21638;BME280;10980;49.596;6.142;2023-02-16T04:57:02;99282.69;;;-1.98;100.00
21638;BME280;10980;49.596;6.142;2023-02-16T05:00:31;99275.56;;;-1.91;100.00
21638;BME280;10980;49.596;6.142;2023-02-16T05:03:57;99273.63;;;-1.85;100.00
21638;BME280;10980;49.596;6.142;2023-02-16T05:07:20;99285.44;;;-1.71;100.00
21638;BME280;10980;49.596;6.142;2023-02-16T05:10:43;99274.13;;;-1.70;100.00
21638;BME280;10980;49.596;6.142;2023-02-16T05:14:05;99270.47;;;-1.63;100.00
21638;BME280;10980;49.596;6.142;2023-02-16T05:17:46;99263.59;;;-1.67;100.00
21638;BME280;10980;49.596;6.142;2023-02-16T05:21:08;99276.47;;;-1.61;100.00
21638;BME280;10980;49.596;6.142;2023-02-16T05:24:50;99288.13;;;-1.74;100.00
21638;BME280;10980;49.596;6.142;2023-02-16T05:28:14;99273.72;;;-1.88;100.00
21638;BME280;10980;49.596;6.142;2023-02-16T05:31:36;99285.63;;;-1.77;100.00
21638;BME280;10980;49.596;6.142;2023-02-16T05:34:58;99284.78;;;-1.80;100.00
21638;BME280;10980;49.596;6.142;2023-02-16T05:38:22;99296.63;;;-1.68;100.00
21638;BME280;10980;49.596;6.142;2023-02-16T05:41:44;99295.25;;;-1.48;100.00
21638;BME280;10980;49.596;6.142;2023-02-16T05:45:06;99294.47;;;-1.52;100.00
21638;BME280;10980;49.596;6.142;2023-02-16T05:48:28;99309.47;;;-1.60;100.00
21638;BME280;10980;49.596;6.142;2023-02-16T05:51:50;99300.56;;;-1.53;100.00
21638;BME280;10980;49.596;6.142;2023-02-16T05:55:13;99303.44;;;-1.62;100.00
21638;BME280;10980;49.596;6.142;2023-02-16T05:58:35;99307.91;;;-1.67;100.00
21638;BME280;10980;49.596;6.142;2023-02-16T06:01:58;99307.81;;;-1.64;100.00
21638;BME280;10980;49.596;6.142;2023-02-16T06:05:22;99311.59;;;-1.74;100.00
21638;BME280;10980;49.596;6.142;2023-02-16T06:08:45;99320.53;;;-1.52;100.00
21638;BME280;10980;49.596;6.142;2023-02-16T06:12:07;99317.28;;;-1.60;100.00
21638;BME280;10980;49.596;6.142;2023-02-16T06:15:29;99309.56;;;-1.65;100.00
21638;BME280;10980;49.596;6.142;2023-02-16T06:18:53;99310.56;;;-1.69;100.00
21638;BME280;10980;49.596;6.142;2023-02-16T06:22:16;99308.00;;;-1.70;100.00
21638;BME280;10980;49.596;6.142;2023-02-16T06:25:44;99312.41;;;-1.41;100.00
21638;BME280;10980;49.596;6.142;2023-02-16T06:29:10;99310.00;;;-1.47;100.00
21638;BME280;10980;49.596;6.142;2023-02-16T06:32:38;99304.06;;;-1.54;100.00
21638;BME280;10980;49.596;6.142;2023-02-16T06:36:00;99298.06;;;-1.56;100.00
21638;BME280;10980;49.596;6.142;2023-02-16T06:39:21;99298.25;;;-1.64;100.00
21638;BME280;10980;49.596;6.142;2023-02-16T06:42:45;99311.66;;;-1.45;100.00
21638;BME280;10980;49.596;6.142;2023-02-16T06:46:07;99317.25;;;-1.28;100.00
21638;BME280;10980;49.596;6.142;2023-02-16T06:49:30;99318.75;;;-1.19;100.00
21638;BME280;10980;49.596;6.142;2023-02-16T06:52:54;99298.78;;;-0.92;100.00
21638;BME280;10980;49.596;6.142;2023-02-16T06:56:17;99305.97;;;-0.71;100.00
21638;BME280;10980;49.596;6.142;2023-02-16T06:59:40;99315.34;;;-0.37;100.00
21638;BME280;10980;49.596;6.142;2023-02-16T07:03:03;99318.66;;;-0.06;100.00
21638;BME280;10980;49.596;6.142;2023-02-16T07:06:27;99332.09;;;0.35;100.00
21638;BME280;10980;49.596;6.142;2023-02-16T07:09:52;99320.09;;;0.78;100.00
21638;BME280;10980;49.596;6.142;2023-02-16T07:13:15;99298.91;;;1.07;100.00
21638;BME280;10980;49.596;6.142;2023-02-16T07:16:37;99309.41;;;1.51;100.00
21638;BME280;10980;49.596;6.142;2023-02-16T07:19:59;99328.88;;;1.88;100.00
21638;BME280;10980;49.596;6.142;2023-02-16T07:23:23;99305.44;;;2.05;100.00
21638;BME280;10980;49.596;6.142;2023-02-16T07:26:50;99343.63;;;2.32;100.00
21638;BME280;10980;49.596;6.142;2023-02-16T07:30:14;99339.53;;;2.66;100.00
21638;BME280;10980;49.596;6.142;2023-02-16T07:33:37;99325.25;;;2.92;100.00
21638;BME280;10980;49.596;6.142;2023-02-16T07:36:59;99342.53;;;3.16;100.00
21638;BME280;10980;49.596;6.142;2023-02-16T07:40:22;99341.56;;;3.55;100.00
21638;BME280;10980;49.596;6.142;2023-02-16T07:43:44;99354.34;;;3.63;100.00
21638;BME280;10980;49.596;6.142;2023-02-16T07:47:07;99343.84;;;3.63;100.00
21638;BME280;10980;49.596;6.142;2023-02-16T07:50:29;99342.59;;;3.88;100.00
21638;BME280;10980;49.596;6.142;2023-02-16T07:53:52;99348.03;;;4.03;100.00
21638;BME280;10980;49.596;6.142;2023-02-16T07:57:14;99331.22;;;4.05;100.00
21638;BME280;10980;49.596;6.142;2023-02-16T08:00:36;99340.91;;;4.22;100.00
21638;BME280;10980;49.596;6.142;2023-02-16T08:04:00;99338.03;;;4.09;100.00
21638;BME280;10980;49.596;6.142;2023-02-16T08:07:22;99330.38;;;4.22;100.00
21638;BME280;10980;49.596;6.142;2023-02-16T08:10:47;99327.44;;;4.28;100.00
21638;BME280;10980;49.596;6.142;2023-02-16T08:14:13;99338.19;;;4.41;100.00
21638;BME280;10980;49.596;6.142;2023-02-16T08:17:37;99328.44;;;4.76;100.00
21638;BME280;10980;49.596;6.142;2023-02-16T08:21:10;99329.88;;;4.99;100.00
21638;BME280;10980;49.596;6.142;2023-02-16T08:24:35;99335.84;;;5.18;100.00
21638;BME280;10980;49.596;6.142;2023-02-16T08:28:02;99335.38;;;5.27;100.00
21638;BME280;10980;49.596;6.142;2023-02-16T08:31:29;99325.84;;;5.41;100.00
21638;BME280;10980;49.596;6.142;2023-02-16T08:34:57;99330.59;;;5.50;100.00
21638;BME280;10980;49.596;6.142;2023-02-16T08:38:20;99329.59;;;5.68;100.00
21638;BME280;10980;49.596;6.142;2023-02-16T08:41:45;99318.78;;;5.73;100.00
21638;BME280;10980;49.596;6.142;2023-02-16T08:45:08;99316.81;;;5.92;100.00
21638;BME280;10980;49.596;6.142;2023-02-16T08:48:31;99317.47;;;5.80;100.00
21638;BME280;10980;49.596;6.142;2023-02-16T08:51:58;99320.44;;;6.05;100.00
21638;BME280;10980;49.596;6.142;2023-02-16T08:55:22;99313.69;;;6.15;100.00
21638;BME280;10980;49.596;6.142;2023-02-16T08:58:46;99320.47;;;6.49;100.00
21638;BME280;10980;49.596;6.142;2023-02-16T09:02:09;99315.22;;;7.06;100.00
21638;BME280;10980;49.596;6.142;2023-02-16T09:05:31;99326.41;;;7.38;100.00
21638;BME280;10980;49.596;6.142;2023-02-16T09:08:56;99325.97;;;7.32;100.00
21638;BME280;10980;49.596;6.142;2023-02-16T09:12:18;99334.56;;;7.21;100.00
21638;BME280;10980;49.596;6.142;2023-02-16T09:15:43;99331.06;;;7.21;100.00
21638;BME280;10980;49.596;6.142;2023-02-16T09:19:06;99330.88;;;7.24;100.00
21638;BME280;10980;49.596;6.142;2023-02-16T09:22:27;99328.97;;;7.26;100.00
21638;BME280;10980;49.596;6.142;2023-02-16T09:25:49;99340.41;;;7.12;100.00
21638;BME280;10980;49.596;6.142;2023-02-16T09:29:12;99331.09;;;7.06;100.00
21638;BME280;10980;49.596;6.142;2023-02-16T09:32:35;99337.19;;;7.50;100.00
21638;BME280;10980;49.596;6.142;2023-02-16T09:35:57;99345.28;;;8.15;100.00
21638;BME280;10980;49.596;6.142;2023-02-16T09:39:20;99332.81;;;8.82;100.00
21638;BME280;10980;49.596;6.142;2023-02-16T09:43:13;99316.25;;;8.91;100.00
21638;BME280;10980;49.596;6.142;2023-02-16T09:46:39;99334.59;;;9.07;100.00
21638;BME280;10980;49.596;6.142;2023-02-16T09:50:17;99333.13;;;9.03;100.00
21638;BME280;10980;49.596;6.142;2023-02-16T10:05:12;99326.31;;;9.24;100.00
21638;BME280;10980;49.596;6.142;2023-02-16T10:08:47;99306.97;;;9.22;100.00
21638;BME280;10980;49.596;6.142;2023-02-16T10:12:21;99325.13;;;9.41;100.00
21638;BME280;10980;49.596;6.142;2023-02-16T10:15:47;99308.81;;;9.58;100.00
21638;BME280;10980;49.596;6.142;2023-02-16T10:19:28;99315.44;;;9.52;100.00
21638;BME280;10980;49.596;6.142;2023-02-16T10:27:04;99317.47;;;10.21;100.00
21638;BME280;10980;49.596;6.142;2023-02-16T10:30:30;99330.13;;;10.41;100.00
21638;BME280;10980;49.596;6.142;2023-02-16T10:34:19;99338.66;;;10.68;100.00
21638;BME280;10980;49.596;6.142;2023-02-16T10:38:26;99330.44;;;10.60;100.00
21638;BME280;10980;49.596;6.142;2023-02-16T10:42:14;99337.72;;;10.81;100.00
21638;BME280;10980;49.596;6.142;2023-02-16T10:45:50;99352.44;;;10.62;100.00
21638;BME280;10980;49.596;6.142;2023-02-16T10:49:16;99329.81;;;10.68;100.00
21638;BME280;10980;49.596;6.142;2023-02-16T10:52:41;99339.28;;;10.37;100.00
21638;BME280;10980;49.596;6.142;2023-02-16T10:56:48;99329.19;;;10.53;100.00
21638;BME280;10980;49.596;6.142;2023-02-16T11:00:17;99319.22;;;10.09;100.00
21638;BME280;10980;49.596;6.142;2023-02-16T11:03:49;99299.81;;;10.20;100.00
21638;BME280;10980;49.596;6.142;2023-02-16T11:07:16;99323.09;;;10.40;100.00
21638;BME280;10980;49.596;6.142;2023-02-16T11:10:53;99314.63;;;10.92;100.00
21638;BME280;10980;49.596;6.142;2023-02-16T11:14:29;99304.84;;;11.15;100.00
21638;BME280;10980;49.596;6.142;2023-02-16T11:18:06;99308.13;;;11.19;100.00
21638;BME280;10980;49.596;6.142;2023-02-16T11:21:50;99304.00;;;11.37;100.00
21638;BME280;10980;49.596;6.142;2023-02-16T11:25:25;99295.16;;;11.37;100.00
21638;BME280;10980;49.596;6.142;2023-02-16T11:28:49;99284.84;;;11.43;100.00
21638;BME280;10980;49.596;6.142;2023-02-16T11:32:14;99301.44;;;11.35;100.00
21638;BME280;10980;49.596;6.142;2023-02-16T11:35:42;99286.97;;;11.17;100.00
21638;BME280;10980;49.596;6.142;2023-02-16T11:43:13;99290.19;;;10.98;100.00
21638;BME280;10980;49.596;6.142;2023-02-16T11:46:22;99282.56;;;10.83;100.00
21638;BME280;10980;49.596;6.142;2023-02-16T11:49:44;99267.34;;;10.96;100.00
21638;BME280;10980;49.596;6.142;2023-02-16T11:56:34;99265.41;;;11.20;100.00
21638;BME280;10980;49.596;6.142;2023-02-16T11:59:58;99262.22;;;11.38;100.00
21638;BME280;10980;49.596;6.142;2023-02-16T12:03:32;99266.75;;;11.69;100.00
21638;BME280;10980;49.596;6.142;2023-02-16T12:07:24;99250.47;;;11.40;100.00
21638;BME280;10980;49.596;6.142;2023-02-16T12:15:20;99247.78;;;12.27;100.00
21638;BME280;10980;49.596;6.142;2023-02-16T12:22:48;99243.19;;;12.59;100.00
21638;BME280;10980;49.596;6.142;2023-02-16T12:30:37;99231.13;;;12.86;100.00
21638;BME280;10980;49.596;6.142;2023-02-16T12:34:30;99228.66;;;13.03;100.00
21638;BME280;10980;49.596;6.142;2023-02-16T12:38:47;99250.09;;;12.92;100.00
21638;BME280;10980;49.596;6.142;2023-02-16T12:42:34;99228.16;;;12.58;100.00
21638;BME280;10980;49.596;6.142;2023-02-16T12:46:31;99241.38;;;12.60;100.00
21638;BME280;10980;49.596;6.142;2023-02-16T12:50:03;99221.91;;;12.48;100.00
21638;BME280;10980;49.596;6.142;2023-02-16T12:53:42;99235.72;;;12.53;100.00
21638;BME280;10980;49.596;6.142;2023-02-16T12:57:15;99225.22;;;12.82;100.00
21638;BME280;10980;49.596;6.142;2023-02-16T13:00:59;99234.31;;;13.10;100.00
21638;BME280;10980;49.596;6.142;2023-02-16T13:16:43;99214.59;;;13.51;100.00
21638;BME280;10980;49.596;6.142;2023-02-16T13:20:26;99218.94;;;13.33;100.00
21638;BME280;10980;49.596;6.142;2023-02-16T13:27:52;99213.44;;;12.94;100.00
21638;BME280;10980;49.596;6.142;2023-02-16T13:31:54;99215.06;;;12.76;100.00
21638;BME280;10980;49.596;6.142;2023-02-16T13:35:52;99221.63;;;12.72;100.00
21638;BME280;10980;49.596;6.142;2023-02-16T13:43:33;99200.59;;;12.48;100.00
21638;BME280;10980;49.596;6.142;2023-02-16T13:47:01;99201.06;;;12.32;100.00
21638;BME280;10980;49.596;6.142;2023-02-16T13:50:32;99180.31;;;12.15;100.00
21638;BME280;10980;49.596;6.142;2023-02-16T13:54:33;99190.16;;;12.35;100.00
21638;BME280;10980;49.596;6.142;2023-02-16T13:58:29;99172.47;;;12.13;100.00
21638;BME280;10980;49.596;6.142;2023-02-16T14:01:52;99184.59;;;11.85;100.00
21638;BME280;10980;49.596;6.142;2023-02-16T14:05:25;99167.81;;;12.06;100.00
21638;BME280;10980;49.596;6.142;2023-02-16T14:12:39;99179.75;;;11.90;100.00
21638;BME280;10980;49.596;6.142;2023-02-16T14:19:37;99189.94;;;11.74;100.00
21638;BME280;10980;49.596;6.142;2023-02-16T14:22:59;99177.09;;;11.90;100.00
21638;BME280;10980;49.596;6.142;2023-02-16T14:26:22;99181.69;;;11.88;100.00
21638;BME280;10980;49.596;6.142;2023-02-16T14:30:00;99175.19;;;11.81;100.00
21638;BME280;10980;49.596;6.142;2023-02-16T14:34:28;99177.00;;;12.02;100.00
21638;BME280;10980;49.596;6.142;2023-02-16T14:37:55;99166.22;;;11.82;100.00
21638;BME280;10980;49.596;6.142;2023-02-16T14:49:32;99173.44;;;12.12;100.00
21638;BME280;10980;49.596;6.142;2023-02-16T14:57:20;99165.94;;;12.27;100.00
21638;BME280;10980;49.596;6.142;2023-02-16T15:00:56;99152.69;;;12.37;100.00
21638;BME280;10980;49.596;6.142;2023-02-16T15:04:32;99141.34;;;12.44;100.00
21638;BME280;10980;49.596;6.142;2023-02-16T15:08:21;99160.63;;;12.58;100.00
21638;BME280;10980;49.596;6.142;2023-02-16T15:11:54;99158.75;;;12.48;100.00
21638;BME280;10980;49.596;6.142;2023-02-16T15:15:46;99161.06;;;12.63;100.00
21638;BME280;10980;49.596;6.142;2023-02-16T15:19:27;99151.78;;;12.57;100.00
21638;BME280;10980;49.596;6.142;2023-02-16T15:23:24;99157.34;;;12.44;100.00
21638;BME280;10980;49.596;6.142;2023-02-16T15:26:54;99163.84;;;12.51;100.00
21638;BME280;10980;49.596;6.142;2023-02-16T15:30:50;99165.06;;;12.47;100.00
21638;BME280;10980;49.596;6.142;2023-02-16T15:34:32;99165.16;;;12.36;100.00
21638;BME280;10980;49.596;6.142;2023-02-16T15:38:23;99170.53;;;12.46;100.00
21638;BME280;10980;49.596;6.142;2023-02-16T15:41:48;99158.09;;;12.56;100.00
21638;BME280;10980;49.596;6.142;2023-02-16T15:45:32;99148.56;;;12.33;100.00
21638;BME280;10980;49.596;6.142;2023-02-16T15:49:36;99142.84;;;12.07;100.00
21638;BME280;10980;49.596;6.142;2023-02-16T15:53:01;99142.88;;;11.96;100.00
21638;BME280;10980;49.596;6.142;2023-02-16T15:56:46;99137.28;;;11.99;100.00
21638;BME280;10980;49.596;6.142;2023-02-16T16:00:19;99146.53;;;11.94;100.00
21638;BME280;10980;49.596;6.142;2023-02-16T16:03:43;99138.72;;;12.03;100.00
21638;BME280;10980;49.596;6.142;2023-02-16T16:07:14;99134.56;;;12.10;100.00
21638;BME280;10980;49.596;6.142;2023-02-16T16:10:42;99136.31;;;12.00;100.00
21638;BME280;10980;49.596;6.142;2023-02-16T16:14:15;99105.66;;;11.84;100.00
21638;BME280;10980;49.596;6.142;2023-02-16T16:17:51;99136.97;;;11.92;100.00
21638;BME280;10980;49.596;6.142;2023-02-16T16:21:28;99117.31;;;11.72;100.00
21638;BME280;10980;49.596;6.142;2023-02-16T16:24:59;99099.63;;;11.50;100.00
21638;BME280;10980;49.596;6.142;2023-02-16T16:31:52;99115.66;;;11.60;100.00
21638;BME280;10980;49.596;6.142;2023-02-16T16:35:40;99123.16;;;11.66;100.00
21638;BME280;10980;49.596;6.142;2023-02-16T16:42:37;99109.50;;;11.39;100.00
21638;BME280;10980;49.596;6.142;2023-02-16T16:46:26;99140.59;;;11.38;100.00
21638;BME280;10980;49.596;6.142;2023-02-16T16:49:54;99132.06;;;11.12;100.00
21638;BME280;10980;49.596;6.142;2023-02-16T16:56:52;99142.53;;;10.93;100.00
21638;BME280;10980;49.596;6.142;2023-02-16T17:00:18;99139.22;;;10.57;100.00
21638;BME280;10980;49.596;6.142;2023-02-16T17:03:40;99133.88;;;10.35;100.00
21638;BME280;10980;49.596;6.142;2023-02-16T17:07:02;99128.97;;;10.06;100.00
21638;BME280;10980;49.596;6.142;2023-02-16T17:10:24;99117.38;;;9.85;100.00
21638;BME280;10980;49.596;6.142;2023-02-16T17:13:46;99105.03;;;9.73;100.00
21638;BME280;10980;49.596;6.142;2023-02-16T17:17:11;99143.22;;;9.94;100.00
21638;BME280;10980;49.596;6.142;2023-02-16T17:20:37;99149.72;;;9.90;100.00
21638;BME280;10980;49.596;6.142;2023-02-16T17:24:04;99126.53;;;9.92;100.00
21638;BME280;10980;49.596;6.142;2023-02-16T17:27:29;99149.63;;;10.03;100.00
21638;BME280;10980;49.596;6.142;2023-02-16T17:30:54;99118.59;;;10.03;100.00
21638;BME280;10980;49.596;6.142;2023-02-16T17:34:20;99161.91;;;10.28;100.00
21638;BME280;10980;49.596;6.142;2023-02-16T17:37:45;99148.00;;;10.24;100.00
21638;BME280;10980;49.596;6.142;2023-02-16T17:41:24;99114.41;;;10.23;100.00
21638;BME280;10980;49.596;6.142;2023-02-16T17:44:54;99143.53;;;10.25;100.00
21638;BME280;10980;49.596;6.142;2023-02-16T17:48:28;99141.06;;;10.10;100.00
21638;BME280;10980;49.596;6.142;2023-02-16T17:51:54;99117.16;;;9.99;100.00
21638;BME280;10980;49.596;6.142;2023-02-16T17:55:16;99152.41;;;10.01;100.00
21638;BME280;10980;49.596;6.142;2023-02-16T17:58:42;99150.41;;;9.81;100.00
21638;BME280;10980;49.596;6.142;2023-02-16T18:02:10;99139.44;;;9.74;100.00
21638;BME280;10980;49.596;6.142;2023-02-16T18:06:01;99156.88;;;9.66;100.00
21638;BME280;10980;49.596;6.142;2023-02-16T18:09:23;99161.09;;;9.57;100.00
21638;BME280;10980;49.596;6.142;2023-02-16T18:12:50;99177.63;;;9.61;100.00
21638;BME280;10980;49.596;6.142;2023-02-16T18:20:55;99129.13;;;9.59;100.00
21638;BME280;10980;49.596;6.142;2023-02-16T18:25:58;99140.75;;;9.69;100.00
21638;BME280;10980;49.596;6.142;2023-02-16T18:35:16;99124.97;;;9.43;100.00
21638;BME280;10980;49.596;6.142;2023-02-16T18:40:31;99120.81;;;9.28;100.00
21638;BME280;10980;49.596;6.142;2023-02-16T18:55:52;99159.53;;;9.54;100.00
21638;BME280;10980;49.596;6.142;2023-02-16T19:01:12;99171.59;;;9.59;100.00
21638;BME280;10980;49.596;6.142;2023-02-16T19:05:49;99135.13;;;9.49;100.00
21638;BME280;10980;49.596;6.142;2023-02-16T19:10:00;99162.00;;;9.80;100.00
21638;BME280;10980;49.596;6.142;2023-02-16T19:13:50;99169.06;;;9.92;100.00
21638;BME280;10980;49.596;6.142;2023-02-16T19:17:28;99162.75;;;9.82;100.00
21638;BME280;10980;49.596;6.142;2023-02-16T19:20:51;99159.66;;;9.99;100.00
21638;BME280;10980;49.596;6.142;2023-02-16T19:29:23;99153.00;;;9.94;100.00
21638;BME280;10980;49.596;6.142;2023-02-16T19:43:55;99162.16;;;10.36;100.00
21638;BME280;10980;49.596;6.142;2023-02-16T19:53:23;99144.75;;;10.32;100.00
21638;BME280;10980;49.596;6.142;2023-02-16T20:19:24;99182.94;;;10.87;100.00
21638;BME280;10980;49.596;6.142;2023-02-16T20:24:32;99139.22;;;10.57;100.00
21638;BME280;10980;49.596;6.142;2023-02-16T20:28:53;99176.91;;;10.51;100.00
21638;BME280;10980;49.596;6.142;2023-02-16T20:32:26;99165.78;;;10.46;100.00
21638;BME280;10980;49.596;6.142;2023-02-16T20:35:56;99164.81;;;10.81;100.00
21638;BME280;10980;49.596;6.142;2023-02-16T20:39:18;99166.03;;;10.77;100.00
21638;BME280;10980;49.596;6.142;2023-02-16T20:43:12;99139.06;;;10.70;100.00
21638;BME280;10980;49.596;6.142;2023-02-16T20:47:06;99127.09;;;10.75;100.00
21638;BME280;10980;49.596;6.142;2023-02-16T20:52:15;99139.91;;;10.70;100.00
21638;BME280;10980;49.596;6.142;2023-02-16T20:56:42;99156.59;;;10.72;100.00
21638;BME280;10980;49.596;6.142;2023-02-16T21:01:00;99154.63;;;10.86;100.00
21638;BME280;10980;49.596;6.142;2023-02-16T21:05:03;99141.03;;;10.57;100.00
21638;BME280;10980;49.596;6.142;2023-02-16T21:08:56;99175.81;;;10.87;100.00
21638;BME280;10980;49.596;6.142;2023-02-16T21:13:18;99124.69;;;10.50;100.00
21638;BME280;10980;49.596;6.142;2023-02-16T21:18:02;99140.41;;;10.64;100.00
21638;BME280;10980;49.596;6.142;2023-02-16T21:22:40;99109.81;;;10.36;100.00
21638;BME280;10980;49.596;6.142;2023-02-16T21:27:32;99125.78;;;10.36;100.00
21638;BME280;10980;49.596;6.142;2023-02-16T21:31:33;99142.81;;;10.56;100.00